createdAt,value
2019-02-06T00:00:55.031Z,-5.09
2019-02-06T00:03:24.607Z,-5.12
2019-02-06T00:05:51.792Z,-5.09
2019-02-06T00:08:18.975Z,-5.07
2019-02-06T00:10:46.168Z,-5.03
2019-02-06T00:13:13.380Z,-5.28
2019-02-06T00:15:42.430Z,-5.51
2019-02-06T00:18:09.922Z,-5.55
2019-02-06T00:20:38.616Z,-5.50
2019-02-06T00:23:06.834Z,-5.45
2019-02-06T00:25:34.025Z,-5.39
2019-02-06T00:28:01.108Z,-5.34
2019-02-06T00:30:28.197Z,-5.33
2019-02-06T00:32:55.307Z,-5.34
2019-02-06T00:35:25.864Z,-5.36
2019-02-06T00:37:51.695Z,-5.35
2019-02-06T00:40:18.898Z,-5.36
2019-02-06T00:42:46.030Z,-5.39
2019-02-06T00:45:13.744Z,-5.37
2019-02-06T00:47:40.834Z,-5.44
2019-02-06T00:50:09.012Z,-5.61
2019-02-06T00:52:36.425Z,-5.76
2019-02-06T00:55:04.026Z,-5.78
2019-02-06T00:57:31.129Z,-5.80
2019-02-06T00:59:58.666Z,-6.00
2019-02-06T01:02:25.840Z,-6.16
2019-02-06T01:04:52.930Z,-6.25
2019-02-06T01:07:20.042Z,-6.27
2019-02-06T01:09:47.128Z,-6.22
2019-02-06T01:12:14.204Z,-6.20
2019-02-06T01:14:41.540Z,-6.16
2019-02-06T01:17:08.624Z,-6.11
2019-02-06T01:19:35.717Z,-6.09
2019-02-06T01:22:03.107Z,-6.11
2019-02-06T01:24:30.253Z,-6.10
2019-02-06T01:26:57.363Z,-6.13
2019-02-06T01:29:24.452Z,-6.12
2019-02-06T01:31:52.242Z,-6.14
2019-02-06T01:34:19.332Z,-6.10
2019-02-06T01:36:46.520Z,-6.06
2019-02-06T01:39:13.726Z,-6.00
2019-02-06T01:41:40.898Z,-5.99
2019-02-06T01:44:11.684Z,-6.00
2019-02-06T01:46:40.172Z,-5.99
2019-02-06T01:49:07.569Z,-5.94
2019-02-06T01:51:34.765Z,-5.92
2019-02-06T01:54:01.887Z,-5.91
2019-02-06T01:56:29.079Z,-6.02
2019-02-06T01:58:57.484Z,-6.10
2019-02-06T02:01:25.802Z,-6.15
2019-02-06T02:03:54.803Z,-6.23
2019-02-06T02:06:23.408Z,-6.31
2019-02-06T02:08:56.382Z,-6.33
2019-02-06T02:11:25.308Z,-6.32
2019-02-06T02:13:53.787Z,-6.46
2019-02-06T02:16:21.080Z,-6.74
2019-02-06T02:18:48.191Z,-6.88
2019-02-06T02:21:16.405Z,-7.00
2019-02-06T02:23:44.804Z,-7.20
2019-02-06T02:26:12.231Z,-7.38
2019-02-06T02:28:39.392Z,-7.53
2019-02-06T02:31:07.549Z,-7.70
2019-02-06T02:33:34.643Z,-7.70
2019-02-06T02:36:14.274Z,-7.64
2019-02-06T02:38:32.009Z,-7.61
2019-02-06T02:41:01.018Z,-7.67
2019-02-06T02:43:31.800Z,-7.83
2019-02-06T02:45:59.019Z,-7.83
2019-02-06T02:48:27.907Z,-7.90
2019-02-06T02:50:56.148Z,-8.07
2019-02-06T02:53:23.356Z,-8.11
2019-02-06T02:55:52.692Z,-8.20
2019-02-06T02:58:20.917Z,-8.20
2019-02-06T03:01:22.902Z,-8.23
2019-02-06T03:03:56.319Z,-8.26
2019-02-06T03:06:28.217Z,-8.25
2019-02-06T03:08:53.893Z,-8.18
2019-02-06T03:11:22.079Z,-8.27
2019-02-06T03:13:50.341Z,-8.32
2019-02-06T03:16:17.444Z,-8.35
2019-02-06T03:18:44.957Z,-8.40
2019-02-06T03:21:12.056Z,-8.50
2019-02-06T03:23:40.368Z,-8.56
2019-02-06T03:26:07.489Z,-8.57
2019-02-06T03:28:35.837Z,-8.61
2019-02-06T03:31:02.999Z,-8.62
2019-02-06T03:33:30.084Z,-8.67
2019-02-06T03:35:58.281Z,-8.75
2019-02-06T03:38:26.101Z,-8.83
2019-02-06T03:40:55.189Z,-8.92
2019-02-06T03:43:22.283Z,-8.96
2019-02-06T03:45:49.396Z,-9.00
2019-02-06T03:48:17.604Z,-9.02
2019-02-06T03:50:44.769Z,-9.04
2019-02-06T03:53:11.974Z,-9.12
2019-02-06T03:55:40.801Z,-9.17
2019-02-06T03:58:07.932Z,-9.20
2019-02-06T04:00:35.037Z,-9.23
2019-02-06T04:03:02.169Z,-9.23
2019-02-06T04:05:29.257Z,-9.26
2019-02-06T04:07:57.565Z,-9.32
2019-02-06T04:10:26.012Z,-9.36
2019-02-06T04:12:53.531Z,-9.43
2019-02-06T04:15:21.676Z,-9.50
2019-02-06T04:17:49.963Z,-9.60
2019-02-06T04:20:18.288Z,-9.63
2019-02-06T04:22:45.453Z,-9.66
2019-02-06T04:25:14.095Z,-9.69
2019-02-06T04:27:43.814Z,-9.72
2019-02-06T04:30:13.034Z,-9.72
2019-02-06T04:32:41.350Z,-9.70
2019-02-06T04:35:10.775Z,-9.65
2019-02-06T04:40:18.129Z,-9.36
2019-02-06T04:42:45.737Z,-9.29
2019-02-06T04:45:15.463Z,-9.21
2019-02-06T04:47:42.569Z,-9.12
2019-02-06T04:50:12.088Z,-9.09
2019-02-06T04:52:42.219Z,-9.05
2019-02-06T04:55:11.008Z,-8.99
2019-02-06T04:57:38.108Z,-8.93
2019-02-06T05:00:14.190Z,-8.97
2019-02-06T05:02:41.302Z,-9.11
2019-02-06T05:05:08.614Z,-9.39
2019-02-06T05:07:35.718Z,-9.61
2019-02-06T05:10:03.265Z,-9.68
2019-02-06T05:12:30.359Z,-9.62
2019-02-06T05:14:57.456Z,-9.62
2019-02-06T05:17:24.757Z,-9.59
2019-02-06T05:19:51.995Z,-9.51
2019-02-06T05:22:20.412Z,-9.47
2019-02-06T05:24:47.509Z,-9.59
2019-02-06T05:27:14.669Z,-9.71
2019-02-06T05:29:41.883Z,-9.77
2019-02-06T05:32:10.253Z,-9.90
2019-02-06T05:34:37.777Z,-10.00
2019-02-06T05:37:06.199Z,-10.27
2019-02-06T05:39:33.378Z,-10.27
2019-02-06T05:42:02.317Z,-10.27
2019-02-06T05:44:30.540Z,-10.27
2019-02-06T05:46:57.653Z,-10.14
2019-02-06T05:49:25.866Z,-10.04
2019-02-06T05:51:53.154Z,-9.96
2019-02-06T05:54:20.398Z,-9.89
2019-02-06T05:56:47.771Z,-9.94
2019-02-06T05:59:16.130Z,-10.07
2019-02-06T06:01:43.352Z,-10.25
2019-02-06T06:04:12.281Z,-10.42
2019-02-06T06:06:39.650Z,-10.55
2019-02-06T06:09:09.183Z,-10.67
2019-02-06T06:11:36.581Z,-10.67
2019-02-06T06:14:04.390Z,-10.73
2019-02-06T06:16:31.495Z,-10.80
2019-02-06T06:18:59.983Z,-10.80
2019-02-06T06:21:28.894Z,-10.65
2019-02-06T06:23:57.123Z,-10.53
2019-02-06T06:26:24.314Z,-10.42
2019-02-06T06:28:51.783Z,-10.42
2019-02-06T06:31:18.906Z,-10.46
2019-02-06T06:33:47.378Z,-10.42
2019-02-06T06:36:14.633Z,-10.42
2019-02-06T06:38:41.789Z,-10.50
2019-02-06T06:41:11.255Z,-10.62
2019-02-06T06:43:38.351Z,-10.62
2019-02-06T06:46:05.476Z,-10.79
2019-02-06T06:48:32.683Z,-10.79
2019-02-06T06:50:59.896Z,-10.91
2019-02-06T06:53:28.817Z,-10.90
2019-02-06T06:55:57.061Z,-10.90
2019-02-06T06:58:24.175Z,-10.91
2019-02-06T07:00:51.375Z,-10.90
2019-02-06T07:03:19.616Z,-10.94
2019-02-06T07:05:47.128Z,-10.92
2019-02-06T07:08:15.464Z,-10.92
2019-02-06T07:10:44.782Z,-10.80
2019-02-06T07:13:11.971Z,-10.53
2019-02-06T07:15:39.208Z,-10.53
2019-02-06T07:18:06.384Z,-10.45
2019-02-06T07:20:34.830Z,-10.45
2019-02-06T07:23:03.585Z,-10.39
2019-02-06T07:25:30.708Z,-10.17
2019-02-06T07:27:59.124Z,-10.17
2019-02-06T07:30:35.783Z,-10.10
2019-02-06T07:33:03.616Z,-10.05
2019-02-06T07:35:32.094Z,-9.98
2019-02-06T07:38:00.775Z,-9.95
2019-02-06T07:40:29.637Z,-9.95
2019-02-06T07:42:56.769Z,-9.92
2019-02-06T07:45:24.951Z,-9.91
2019-02-06T07:47:52.067Z,-9.90
2019-02-06T07:50:23.442Z,-9.85
2019-02-06T07:52:50.688Z,-9.79
2019-02-06T07:55:17.832Z,-9.68
2019-02-06T07:57:45.152Z,-9.58
2019-02-06T08:00:12.600Z,-9.49
2019-02-06T08:02:40.117Z,-9.45
2019-02-06T08:05:10.516Z,-9.41
2019-02-06T08:07:37.645Z,-9.42
2019-02-06T08:10:07.062Z,-9.46
2019-02-06T08:12:37.279Z,-9.51
2019-02-06T08:15:06.145Z,-9.50
2019-02-06T08:17:36.188Z,-9.48
2019-02-06T08:20:04.133Z,-9.52
2019-02-06T08:22:31.253Z,-9.52
2019-02-06T08:24:59.475Z,-9.43
2019-02-06T08:27:27.020Z,-9.34
2019-02-06T08:29:55.436Z,-9.26
2019-02-06T08:32:22.773Z,-9.22
2019-02-06T08:34:49.872Z,-9.12
2019-02-06T08:37:18.378Z,-9.01
2019-02-06T08:39:46.591Z,-8.88
2019-02-06T08:42:13.710Z,-8.77
2019-02-06T08:44:41.354Z,-8.69
2019-02-06T08:47:08.740Z,-8.67
2019-02-06T08:49:35.887Z,-8.69
2019-02-06T08:52:04.096Z,-8.67
2019-02-06T08:54:31.289Z,-8.68
2019-02-06T08:56:59.485Z,-8.69
2019-02-06T08:59:28.281Z,-8.69
2019-02-06T09:01:57.482Z,-8.67
2019-02-06T09:04:24.590Z,-8.61
2019-02-06T09:06:51.688Z,-8.56
2019-02-06T09:09:18.898Z,-8.53
2019-02-06T09:11:47.347Z,-8.50
2019-02-06T09:14:14.435Z,-8.52
2019-02-06T09:16:44.795Z,-8.56
2019-02-06T09:19:12.325Z,-8.56
2019-02-06T09:21:40.780Z,-8.56
2019-02-06T09:24:07.874Z,-8.54
2019-02-06T09:26:36.253Z,-8.49
2019-02-06T09:29:04.677Z,-8.41
2019-02-06T09:31:33.593Z,-8.31
2019-02-06T09:34:00.900Z,-8.22
2019-02-06T09:36:29.692Z,-8.09
2019-02-06T09:38:58.000Z,-7.97
2019-02-06T09:41:25.203Z,-7.88
2019-02-06T09:43:52.461Z,-7.76
2019-02-06T09:46:19.578Z,-7.68
2019-02-06T09:48:46.682Z,-7.53
2019-02-06T09:51:13.872Z,-7.53
2019-02-06T09:53:42.789Z,-7.49
2019-02-06T09:56:10.191Z,-7.45
2019-02-06T09:58:37.436Z,-7.33
2019-02-06T10:01:04.775Z,-7.25
2019-02-06T10:03:32.137Z,-7.17
2019-02-06T10:05:59.308Z,-7.06
2019-02-06T10:08:26.421Z,-6.99
2019-02-06T10:10:53.520Z,-6.89
2019-02-06T10:13:22.883Z,-6.79
2019-02-06T10:15:51.811Z,-6.66
2019-02-06T10:18:20.703Z,-6.54
2019-02-06T10:20:49.855Z,-6.47
2019-02-06T10:23:18.857Z,-6.34
2019-02-06T10:25:47.165Z,-6.17
2019-02-06T10:28:17.940Z,-5.97
2019-02-06T10:30:51.550Z,-5.77
2019-02-06T10:33:20.168Z,-5.62
2019-02-06T10:35:52.069Z,-5.59
2019-02-06T10:38:18.240Z,-5.57
2019-02-06T10:40:46.516Z,-5.53
2019-02-06T10:43:13.735Z,-5.54
2019-02-06T10:45:42.083Z,-5.54
2019-02-06T10:48:10.479Z,-5.56
2019-02-06T10:50:40.243Z,-5.52
2019-02-06T10:53:07.816Z,-5.46
2019-02-06T10:55:36.144Z,-5.33
2019-02-06T10:58:06.136Z,-5.22
2019-02-06T11:00:38.090Z,-5.19
2019-02-06T11:03:05.280Z,-5.15
2019-02-06T11:05:32.396Z,-5.13
2019-02-06T11:08:00.637Z,-5.15
2019-02-06T11:10:27.942Z,-5.11
2019-02-06T11:12:56.244Z,-5.08
2019-02-06T11:15:24.078Z,-5.01
2019-02-06T11:17:51.572Z,-4.99
2019-02-06T11:20:18.964Z,-4.98
2019-02-06T11:22:46.304Z,-5.02
2019-02-06T11:25:13.778Z,-5.08
2019-02-06T11:27:40.870Z,-5.14
2019-02-06T11:30:11.661Z,-5.15
2019-02-06T11:32:38.756Z,-5.19
2019-02-06T11:35:08.185Z,-5.15
2019-02-06T11:37:35.411Z,-5.07
2019-02-06T11:40:04.416Z,-5.07
2019-02-06T11:42:32.652Z,-5.03
2019-02-06T11:44:59.996Z,-4.97
2019-02-06T11:47:27.098Z,-4.92
2019-02-06T11:49:56.461Z,-4.87
2019-02-06T11:52:25.821Z,-4.82
2019-02-06T11:54:52.997Z,-4.79
2019-02-06T11:57:20.190Z,-4.77
2019-02-06T11:59:49.087Z,-4.75
2019-02-06T12:02:19.358Z,-4.70
2019-02-06T12:04:46.453Z,-4.64
2019-02-06T12:07:14.687Z,-4.64
2019-02-06T12:09:42.980Z,-4.61
2019-02-06T12:12:10.226Z,-4.60
2019-02-06T12:14:37.463Z,-4.62
2019-02-06T12:17:06.100Z,-4.61
2019-02-06T12:19:34.992Z,-4.57
2019-02-06T12:22:02.160Z,-4.52
2019-02-06T12:24:29.245Z,-4.47
2019-02-06T12:26:56.440Z,-4.42
2019-02-06T12:29:23.528Z,-4.39
2019-02-06T12:31:50.622Z,-4.38
2019-02-06T12:34:17.766Z,-4.38
2019-02-06T12:36:45.964Z,-4.37
2019-02-06T12:39:13.146Z,-4.33
2019-02-06T12:41:40.278Z,-4.32
2019-02-06T12:44:07.373Z,-4.28
2019-02-06T12:46:34.472Z,-4.30
2019-02-06T12:49:01.984Z,-4.30
2019-02-06T12:51:30.184Z,-4.29
2019-02-06T12:53:57.274Z,-4.26
2019-02-06T12:56:24.473Z,-4.23
2019-02-06T12:58:51.663Z,-4.22
2019-02-06T13:01:19.994Z,-4.17
2019-02-06T13:03:47.121Z,-4.18
2019-02-06T13:06:16.182Z,-4.18
2019-02-06T13:08:43.386Z,-4.16
2019-02-06T13:11:10.485Z,-4.13
2019-02-06T13:13:37.678Z,-4.15
2019-02-06T13:16:06.723Z,-4.15
2019-02-06T13:18:34.058Z,-4.16
2019-02-06T13:21:03.254Z,-4.16
2019-02-06T13:23:30.423Z,-4.14
2019-02-06T13:26:00.617Z,-4.13
2019-02-06T13:28:30.919Z,-4.11
2019-02-06T13:31:01.780Z,-4.11
2019-02-06T13:33:28.873Z,-4.07
2019-02-06T13:35:56.078Z,-4.05
2019-02-06T13:38:25.096Z,-4.05
2019-02-06T13:40:57.328Z,-4.05
2019-02-06T13:43:25.534Z,-4.01
2019-02-06T13:45:53.835Z,-4.02
2019-02-06T13:48:21.004Z,-4.05
2019-02-06T13:50:49.404Z,-4.05
2019-02-06T13:53:17.894Z,-4.04
2019-02-06T13:55:45.528Z,-4.04
2019-02-06T13:58:20.166Z,-4.05
2019-02-06T14:00:45.388Z,-4.06
2019-02-06T14:03:15.330Z,-4.10
2019-02-06T14:05:43.134Z,-4.13
2019-02-06T14:08:15.367Z,-4.15
2019-02-06T14:10:42.972Z,-4.15
2019-02-06T14:13:12.529Z,-4.17
2019-02-06T14:15:41.417Z,-4.20
2019-02-06T14:18:10.356Z,-4.21
2019-02-06T14:20:38.353Z,-4.21
2019-02-06T14:23:14.459Z,-4.20
2019-02-06T14:26:06.319Z,-4.23
2019-02-06T14:29:31.063Z,-4.19
2019-02-06T14:32:29.515Z,-4.17
2019-02-06T14:35:25.638Z,-4.17
2019-02-06T14:38:40.574Z,-4.21
2019-02-06T14:41:32.461Z,-4.21
2019-02-06T14:44:46.378Z,-4.21
2019-02-06T14:48:00.193Z,-4.27
2019-02-06T14:50:53.120Z,-4.33
2019-02-06T14:54:02.079Z,-4.31
2019-02-06T14:57:23.521Z,-4.31
2019-02-06T15:00:14.074Z,-4.31
2019-02-06T15:03:34.513Z,-4.31
2019-02-06T15:06:38.033Z,-4.36
2019-02-06T15:09:37.770Z,-4.39
2019-02-06T15:12:30.188Z,-4.39
2019-02-06T15:15:44.054Z,-4.39
2019-02-06T15:18:48.737Z,-4.39
2019-02-06T15:21:30.104Z,-4.40
2019-02-06T15:24:22.680Z,-4.43
2019-02-06T15:27:28.703Z,-4.45
2019-02-06T15:30:18.034Z,-4.49
2019-02-06T15:33:26.570Z,-4.52
2019-02-06T15:36:37.731Z,-4.57
2019-02-06T15:39:38.412Z,-4.63
2019-02-06T15:42:43.278Z,-4.68
2019-02-06T15:45:41.635Z,-4.77
2019-02-06T15:48:51.116Z,-4.82
2019-02-06T15:51:40.233Z,-4.85
2019-02-06T15:54:49.024Z,-4.86
2019-02-06T15:58:11.483Z,-4.87
2019-02-06T16:01:37.936Z,-4.87
2019-02-06T16:05:20.968Z,-4.89
2019-02-06T16:08:26.174Z,-4.89
2019-02-06T16:11:42.476Z,-4.87
2019-02-06T16:14:47.137Z,-4.86
2019-02-06T16:18:08.594Z,-4.85
2019-02-06T16:21:12.253Z,-4.84
2019-02-06T16:24:26.912Z,-4.81
2019-02-06T16:27:34.565Z,-4.79
2019-02-06T16:31:10.664Z,-4.76
2019-02-06T16:34:08.741Z,-4.70
2019-02-06T16:37:26.516Z,-4.62
2019-02-06T16:40:49.648Z,-4.61
2019-02-06T16:44:00.945Z,-4.58
2019-02-06T16:46:55.208Z,-4.51
2019-02-06T16:50:03.833Z,-4.43
2019-02-06T16:52:41.333Z,-4.40
2019-02-06T16:55:48.857Z,-4.36
2019-02-06T16:58:39.488Z,-4.30
2019-02-06T17:01:51.638Z,-4.18
2019-02-06T17:04:49.760Z,-4.09
2019-02-06T17:07:43.384Z,-4.03
2019-02-06T17:10:58.642Z,-4.00
2019-02-06T17:14:08.956Z,-3.97
2019-02-06T17:17:01.326Z,-3.94
2019-02-06T17:19:49.669Z,-3.88
2019-02-06T17:22:52.439Z,-3.85
2019-02-06T17:26:00.280Z,-3.82
2019-02-06T17:29:08.161Z,-3.76
2019-02-06T17:32:18.245Z,-3.72
2019-02-06T17:35:33.476Z,-3.67
2019-02-06T17:38:33.541Z,-3.62
2019-02-06T17:41:25.744Z,-3.56
2019-02-06T17:44:07.711Z,-3.51
2019-02-06T17:47:19.497Z,-3.48
2019-02-06T17:50:27.508Z,-3.46
2019-02-06T17:53:29.171Z,-3.42
2019-02-06T17:55:56.264Z,-3.40
2019-02-06T17:58:23.411Z,-3.31
2019-02-06T18:01:01.411Z,-3.25
2019-02-06T18:03:32.942Z,-3.20
2019-02-06T18:06:01.234Z,-3.13
2019-02-06T18:08:28.345Z,-3.06
2019-02-06T18:10:58.849Z,-3.01
2019-02-06T18:13:25.994Z,-2.95
2019-02-06T18:15:54.398Z,-2.89
2019-02-06T18:18:22.313Z,-2.84
2019-02-06T18:20:55.676Z,-2.74
2019-02-06T18:23:23.971Z,-2.68
2019-02-06T18:25:53.313Z,-2.63
2019-02-06T18:28:20.425Z,-2.57
2019-02-06T18:30:47.526Z,-2.53
2019-02-06T18:33:14.737Z,-2.49
2019-02-06T18:35:41.906Z,-2.44
2019-02-06T18:38:09.326Z,-2.41
2019-02-06T18:40:40.280Z,-2.37
2019-02-06T18:43:07.341Z,-2.32
2019-02-06T18:45:34.533Z,-2.29
2019-02-06T18:48:03.546Z,-2.25
2019-02-06T18:50:31.312Z,-2.21
2019-02-06T18:53:00.266Z,-2.16
2019-02-06T18:55:28.644Z,-2.10
2019-02-06T18:57:57.155Z,-2.05
2019-02-06T19:00:28.357Z,-2.00
2019-02-06T19:02:56.620Z,-1.96
2019-02-06T19:05:33.261Z,-1.94
2019-02-06T19:08:01.807Z,-1.92
2019-02-06T19:10:30.370Z,-1.87
2019-02-06T19:12:59.738Z,-1.85
2019-02-06T19:15:28.474Z,-1.78
2019-02-06T19:17:59.249Z,-1.74
2019-02-06T19:20:26.461Z,-1.69
2019-02-06T19:22:53.571Z,-1.63
2019-02-06T19:25:24.048Z,-1.59
2019-02-06T19:28:12.030Z,-1.52
2019-02-06T19:30:40.672Z,-1.47
2019-02-06T19:33:11.296Z,-1.40
2019-02-06T19:35:38.319Z,-1.36
2019-02-06T19:38:07.680Z,-1.30
2019-02-06T19:40:35.244Z,-1.26
2019-02-06T19:43:03.603Z,-1.20
2019-02-06T19:45:30.709Z,-1.15
2019-02-06T19:47:58.270Z,-1.11
2019-02-06T19:50:29.017Z,-1.07
2019-02-06T19:52:56.283Z,-1.04
2019-02-06T19:55:23.385Z,-1.02
2019-02-06T19:57:52.686Z,-0.98
2019-02-06T20:00:25.355Z,-0.94
2019-02-06T20:02:55.474Z,-0.93
2019-02-06T20:05:23.176Z,-0.91
2019-02-06T20:07:51.388Z,-0.88
2019-02-06T20:10:22.485Z,-0.87
2019-02-06T20:12:49.566Z,-0.85
2019-02-06T20:15:17.780Z,-0.83
2019-02-06T20:17:45.196Z,-0.80
2019-02-06T20:20:14.974Z,-0.78
2019-02-06T20:22:43.970Z,-0.76
2019-02-06T20:25:11.681Z,-0.73
2019-02-06T20:27:38.931Z,-0.71
2019-02-06T20:30:10.004Z,-0.69
2019-02-06T20:32:39.007Z,-0.68
2019-02-06T20:35:09.082Z,-0.66
2019-02-06T20:37:36.183Z,-0.61
2019-02-06T20:40:04.991Z,-0.59
2019-02-06T20:42:32.641Z,-0.56
2019-02-06T20:44:59.769Z,-0.53
2019-02-06T20:47:26.883Z,-0.51
2019-02-06T20:49:53.969Z,-0.47
2019-02-06T20:52:23.599Z,-0.46
2019-02-06T20:54:50.145Z,-0.42
2019-02-06T20:57:17.264Z,-0.39
2019-02-06T20:59:44.351Z,-0.39
2019-02-06T21:02:11.736Z,-0.35
2019-02-06T21:04:38.913Z,-0.34
2019-02-06T21:07:06.006Z,-0.30
2019-02-06T21:09:33.176Z,-0.29
2019-02-06T21:12:01.385Z,-0.27
2019-02-06T21:14:28.476Z,-0.24
2019-02-06T21:16:55.687Z,-0.21
2019-02-06T21:19:23.860Z,-0.19
2019-02-06T21:21:53.345Z,-0.17
2019-02-06T21:24:20.558Z,-0.15
2019-02-06T21:26:50.640Z,-0.14
2019-02-06T21:29:21.579Z,-0.12
2019-02-06T21:31:48.845Z,-0.09
2019-02-06T21:34:18.859Z,-0.08
2019-02-06T21:36:46.424Z,-0.04
2019-02-06T21:39:13.500Z,-0.03
2019-02-06T21:41:42.926Z,-0.01
2019-02-06T21:44:13.754Z,0.04
2019-02-06T21:46:41.185Z,0.05
2019-02-06T21:49:08.278Z,0.07
2019-02-06T21:51:35.427Z,0.08
2019-02-06T21:54:02.821Z,0.10
2019-02-06T21:56:29.966Z,0.14
2019-02-06T21:58:57.107Z,0.06
2019-02-06T22:01:24.308Z,0.14
2019-02-06T22:03:53.200Z,0.17
2019-02-06T22:06:21.402Z,0.20
2019-02-06T22:08:51.063Z,0.21
2019-02-06T22:11:20.232Z,0.22
2019-02-06T22:13:55.021Z,0.24
2019-02-06T22:16:17.648Z,0.24
2019-02-06T22:18:44.954Z,0.30
2019-02-06T22:21:16.128Z,0.30
2019-02-06T22:23:47.224Z,0.31
2019-02-06T22:26:17.322Z,0.35
2019-02-06T22:28:45.613Z,0.37
2019-02-06T22:31:12.874Z,0.39
2019-02-06T22:33:41.422Z,0.40
2019-02-06T22:36:09.535Z,0.42
2019-02-06T22:38:36.732Z,0.43
2019-02-06T22:41:06.144Z,0.44
2019-02-06T22:43:36.255Z,0.46
2019-02-06T22:46:03.388Z,0.47
2019-02-06T22:48:30.487Z,0.52
2019-02-06T22:50:57.661Z,0.53
2019-02-06T22:53:24.793Z,0.53
2019-02-06T22:55:51.908Z,0.56
2019-02-06T22:58:19.426Z,0.57
2019-02-06T23:01:03.384Z,0.59
2019-02-06T23:03:40.614Z,0.61
2019-02-06T23:06:08.904Z,0.64
2019-02-06T23:08:36.353Z,0.65
2019-02-06T23:11:04.276Z,0.66
2019-02-06T23:13:33.172Z,0.68
2019-02-06T23:16:00.384Z,0.68
2019-02-06T23:18:27.476Z,0.69
2019-02-06T23:20:56.521Z,0.69
2019-02-06T23:23:23.583Z,0.70
2019-02-06T23:25:51.108Z,0.72
2019-02-06T23:28:19.414Z,0.71
2019-02-06T23:30:46.503Z,0.73
2019-02-06T23:33:13.699Z,0.75
2019-02-06T23:35:40.800Z,0.73
2019-02-06T23:38:08.091Z,0.76
2019-02-06T23:40:36.295Z,0.77
2019-02-06T23:43:05.937Z,0.77
2019-02-06T23:45:33.046Z,0.78
2019-02-06T23:48:01.264Z,0.78
2019-02-06T23:50:28.422Z,0.81
2019-02-06T23:52:56.513Z,0.81
2019-02-06T23:55:24.702Z,0.81
2019-02-06T23:57:54.639Z,0.83
